Аэропорт: Астана. Астана

ICAO: UACC

METAR:
2021-07-28 14:30:00
UACC 281430Z 20003MPS CAVOK 22/07 Q1009 R22/0///70 NOSIG RMK QFE726/0968
METAR:
2021-07-28 11:04:00
TAF UACC 281104Z 2812/2912 30004MPS 9999 SCT030 BKN100 TX24/2909Z TN12/2823Z BECMG 2814/2816 VRB02MPS SCT030CB BECMG 2903/2905 03006MPS PROB40 TEMPO 2906/2912 VRB16MPS 4000 -TSRA SQ BKN030CB